Map

Track Data

SID SEASON NUMBER BASIN SUBBASIN NAME ISO_TIME NATURE LAT LON WMO_WIND WMO_PRES WMO_AGENCY TRACK_TYPE DIST2LAND LANDFALL IFLAG USA_AGENCY USA_ATCF_ID USA_LAT USA_LON USA_RECORD USA_STATUS USA_WIND USA_PRES USA_SSHS USA_R34_NE USA_R34_SE USA_R34_SW USA_R34_NW USA_R50_NE USA_R50_SE USA_R50_SW USA_R50_NW USA_R64_NE USA_R64_SE USA_R64_SW USA_R64_NW USA_POCI USA_ROCI USA_RMW USA_EYE TOKYO_LAT TOKYO_LON TOKYO_GRADE TOKYO_WIND TOKYO_PRES TOKYO_R50_DIR TOKYO_R50_LONG TOKYO_R50_SHORT TOKYO_R30_DIR TOKYO_R30_LONG TOKYO_R30_SHORT TOKYO_LAND CMA_LAT CMA_LON CMA_CAT CMA_WIND CMA_PRES HKO_LAT HKO_LON HKO_CAT HKO_WIND HKO_PRES NEWDELHI_LAT NEWDELHI_LON NEWDELHI_GRADE NEWDELHI_WIND NEWDELHI_PRES NEWDELHI_CI NEWDELHI_DP NEWDELHI_POCI REUNION_LAT REUNION_LON REUNION_TYPE REUNION_WIND REUNION_PRES REUNION_TNUM REUNION_CI REUNION_RMW REUNION_R34_NE REUNION_R34_SE REUNION_R34_SW REUNION_R34_NW REUNION_R50_NE REUNION_R50_SE REUNION_R50_SW REUNION_R50_NW REUNION_R64_NE REUNION_R64_SE REUNION_R64_SW REUNION_R64_NW BOM_LAT BOM_LON BOM_TYPE BOM_WIND BOM_PRES BOM_TNUM BOM_CI BOM_RMW BOM_R34_NE BOM_R34_SE BOM_R34_SW BOM_R34_NW BOM_R50_NE BOM_R50_SE BOM_R50_SW BOM_R50_NW BOM_R64_NE BOM_R64_SE BOM_R64_SW BOM_R64_NW BOM_ROCI BOM_POCI BOM_EYE BOM_POS_METHOD BOM_PRES_METHOD NADI_LAT NADI_LON NADI_CAT NADI_WIND NADI_PRES WELLINGTON_LAT WELLINGTON_LON WELLINGTON_WIND WELLINGTON_PRES DS824_LAT DS824_LON DS824_STAGE DS824_WIND DS824_PRES TD9636_LAT TD9636_LON TD9636_STAGE TD9636_WIND TD9636_PRES TD9635_LAT TD9635_LON TD9635_WIND TD9635_PRES TD9635_ROCI NEUMANN_LAT NEUMANN_LON NEUMANN_CLASS NEUMANN_WIND NEUMANN_PRES MLC_LAT MLC_LON MLC_CLASS MLC_WIND MLC_PRES USA_GUST BOM_GUST BOM_GUST_PER REUNION_GUST REUNION_GUST_PER USA_SEAHGT USA_SEARAD_NE USA_SEARAD_SE USA_SEARAD_SW USA_SEARAD_NW STORM_SPEED STORM_DIR
1970203N19147 1970 68 WP MM NOT_NAMED 1970-07-21 12:00:00 TS 18.8000 147.200 main 1936 1936 __O___________ -1 18.8000 147.200 0 19 1006 11 233
1970203N19147 1970 68 WP MM NOT_NAMED 1970-07-21 15:00:00 TS 18.4749 146.745 main 1950 1950 __P___________ -1 18.4749 146.745 0 19 1006 11 238
1970203N19147 1970 68 WP MM NOT_NAMED 1970-07-21 18:00:00 TS 18.2000 146.200 main 1966 1961 __O___________ -1 18.2000 146.200 0 19 1006 12 248
1970203N19147 1970 68 WP MM NOT_NAMED 1970-07-21 21:00:00 TS 18.0129 145.528 main 1966 1954 __P___________ -1 18.0129 145.528 0 19 1006 13 256
1970203N19147 1970 68 WP MM NOT_NAMED 1970-07-22 00:00:00 TS 17.9000 144.900 main 1954 1945 __O___________ -1 17.9000 144.900 0 19 1006 10 259
1970203N19147 1970 68 WP MM NOT_NAMED 1970-07-22 03:00:00 TS 17.8271 144.513 main 1946 1933 __P___________ -1 17.8271 144.513 0 19 1006 7 261
1970203N19147 1970 68 WP MM NOT_NAMED 1970-07-22 06:00:00 TS 17.8000 144.200 main 1933 1916 __O___________ -1 17.8000 144.200 0 19 1006 7 267
1970203N19147 1970 68 WP MM NOT_NAMED 1970-07-22 09:00:00 TS 17.7925 143.808 main 1916 1900 __P___________ -1 17.7925 143.808 0 19 1005 8 270
1970203N19147 1970 68 WP MM NOT_NAMED 1970-07-22 12:00:00 TS 17.8000 143.400 main 1900 1884 __O___________ -1 17.8000 143.400 0 19 1005 8 271
1970203N19147 1970 68 WP MM NOT_NAMED 1970-07-22 15:00:00 TS 17.7999 143.000 main 1884 1869 __P___________ -1 17.7999 143.000 0 21 1003 8 270
1970203N19147 1970 68 WP MM NOT_NAMED 1970-07-22 18:00:00 TS 17.8000 142.600 main 1869 1855 __O___________ -1 17.8000 142.600 1 23 1001 8 269
1970203N19147 1970 68 WP MM NOT_NAMED 1970-07-22 21:00:00 TS 17.7925 142.192 main 1855 1842 __P___________ -1 17.7925 142.192 1 23 1001 8 270
1970203N19147 1970 68 WP MM NOT_NAMED 1970-07-23 00:00:00 TS 17.8000 141.800 main 1842 1828 __O___________ -1 17.8000 141.800 1 23 1002 7 273
1970203N19147 1970 68 WP MM NOT_NAMED 1970-07-23 03:00:00 TS 17.8349 141.442 main 1818 1792 __P___________ -1 17.8349 141.442 1 23 1002 7 279
1970203N19147 1970 68 WP MM NOT_NAMED 1970-07-23 06:00:00 TS 17.9000 141.100 main 1792 1765 __O___________ -1 17.9000 141.100 1 23 1003 7 283
1970203N19147 1970 68 WP MM NOT_NAMED 1970-07-23 09:00:00 TS 17.9849 140.750 main 1755 1729 __P___________ -1 17.9849 140.750 1 23 1003 7 287
1970203N19147 1970 68 WP MM NOT_NAMED 1970-07-23 12:00:00 TS 18.1000 140.400 main 1729 1704 __O___________ -1 18.1000 140.400 1 23 1003 7 292
1970203N19147 1970 68 WP MM NOT_NAMED 1970-07-23 15:00:00 TS 18.2499 140.050 main 1704 1673 __P___________ -1 18.2499 140.050 1 23 1003 7 294
1970203N19147 1970 68 WP MM NOT_NAMED 1970-07-23 18:00:00 TS 18.4000 139.700 main 1673 1648 __O___________ -1 18.4000 139.700 1 23 1003 7 291
1970203N19147 1970 68 WP MM NOT_NAMED 1970-07-23 21:00:00 TS 18.5074 139.357 main 1648 1614 __P___________ -1 18.5074 139.357 1 23 1003 7 287
1970203N19147 1970 68 WP MM NOT_NAMED 1970-07-24 00:00:00 TS 18.6000 139.000 main 1614 1580 __O___________ -1 18.6000 139.000 1 23 1003 7 285
1970203N19147 1970 68 WP MM NOT_NAMED 1970-07-24 03:00:00 TS 18.6924 138.615 main 1580 1547 __P___________ -1 18.6924 138.615 1 23 1003 8 285
1970203N19147 1970 68 WP MM NOT_NAMED 1970-07-24 06:00:00 TS 18.8000 138.200 main 1547 1515 __O___________ -1 18.8000 138.200 1 23 1003 8 287
1970203N19147 1970 68 WP MM NOT_NAMED 1970-07-24 09:00:00 TS 18.9424 137.765 main 1515 1480 __P___________ -1 18.9424 137.765 1 21 1003 9 289
1970203N19147 1970 68 WP MM NOT_NAMED 1970-07-24 12:00:00 TS 19.1000 137.300 main 1480 1440 __O___________ -1 19.1000 137.300 0 19 1004 10 289
1970203N19147 1970 68 WP MM NOT_NAMED 1970-07-24 15:00:00 TS 19.2575 136.800 main 1443 1408 __P___________ -1 19.2575 136.800 0 1004 10 288
1970203N19147 1970 68 WP MM NOT_NAMED 1970-07-24 18:00:00 TS 19.4000 136.300 main 1408 1375 __O___________ -1 19.4000 136.300 0 1004 9 285
1970203N19147 1970 68 WP MM NOT_NAMED 1970-07-24 21:00:00 TS 19.4996 135.872 main 1375 1333 __P___________ -1 19.4996 135.872 0 1004 9 283
1970203N19147 1970 68 WP MM NOT_NAMED 1970-07-25 00:00:00 TS 19.6000 135.400 main 1333 1282 __O___________ -1 19.6000 135.400 0 1005 10 283
1970203N19147 1970 68 WP MM NOT_NAMED 1970-07-25 03:00:00 TS 19.7347 134.810 main 1282 1230 __P___________ -1 19.7347 134.810 0 1005 13 284
1970203N19147 1970 68 WP MM NOT_NAMED 1970-07-25 06:00:00 TS 19.9000 134.100 main 1230 1170 __O___________ -1 19.9000 134.100 0 1005 15 285
1970203N19147 1970 68 WP MM NOT_NAMED 1970-07-25 09:00:00 TS 20.1073 133.295 main 1170 1090 __P___________ -1 20.1073 133.295 0 1005 16 284
1970203N19147 1970 68 WP MM NOT_NAMED 1970-07-25 12:00:00 TS 20.3000 132.400 main 1080 990 __O___________ -1 20.3000 132.400 0 1006 18 281
1970203N19147 1970 68 WP MM NOT_NAMED 1970-07-25 15:00:00 TS 20.4380 131.413 main 980 891 __P___________ -1 20.4380 131.413 0 1006 18 276
1970203N19147 1970 68 WP MM NOT_NAMED 1970-07-25 18:00:00 TS 20.5000 130.500 main 891 830 __O___________ -1 20.5000 130.500 0 1006 15 272
1970203N19147 1970 68 WP MM NOT_NAMED 1970-07-25 21:00:00 TS 20.4941 129.855 main 830 767 __P___________ -1 20.4941 129.855 0 1006 11 265
1970203N19147 1970 68 WP MM NOT_NAMED 1970-07-26 00:00:00 TS 20.4000 129.300 main 767 704 __O___________ -1 20.4000 129.300 0 1006 12 258
1970203N19147 1970 68 WP MM NOT_NAMED 1970-07-26 03:00:00 TS 20.2526 128.635 main 694 624 __P___________ -1 20.2526 128.635 0 1006 13 252
1970203N19147 1970 68 WP MM NOT_NAMED 1970-07-26 06:00:00 TS 20.0000 128.000 main 624 565 __O___________ -1 20.0000 128.000 0 1007 13 241
1970203N19147 1970 68 WP MM NOT_NAMED 1970-07-26 09:00:00 TS 19.6326 127.467 main 562 502 __P___________ -1 19.6326 127.467 0 1007 12 230
1970203N19147 1970 68 WP MM NOT_NAMED 1970-07-26 12:00:00 TS 19.2000 127.000 main 502 __O___________ -1 19.2000 127.000 0 1007 12 226

Digital Typhoon Data and Search

About IBTrACS Database

This database is a web-friendly format of International Best Track Archive for Climate Stewardship (IBTrACS), a global best track data archive curated by NOAA dating back to 1842.

Updated: 2021-12-06